Terminal Aerodrome Forecast
Issued by NWS

Home | Current Version | Previous Version | Graphics & Text | Print | Product List | Glossary On
Versions: 1 2 3 4 5 6 7 8 9 10 11 12 13 14 15 16 17 18 19 20 21 22 23 24 25 26 27 28 29 30 31 32
000
FTUS43 KLOT 181738
TAFMDW
TAF
KMDW 181738Z 1818/1924 04011KT P6SM SCT100 BKN150
     FM181830 06012KT P6SM VCSH BKN040 OVC100
      TEMPO 1820/1824 6SM -SHRA SCT025 BKN030 OVC060
     FM190300 06010KT P6SM VCSH BKN020 OVC040
     FM190700 07007KT 4SM -SHRA BR FEW005 BKN008 OVC010
     FM191100 01005KT 5SM BR VCSH FEW005 OVC008
     FM191400 28005KT P6SM SCT008 BKN015 OVC025
     FM191800 19005KT P6SM BKN025
     FM192200 07007KT P6SM BKN030=

USA.gov is the U.S. government's official web portal to all federal, state and local government web resources and services.